createdAt,value
2023-03-08T00:01:52.380Z,-0.69
2023-03-08T00:03:56.878Z,-0.72
2023-03-08T00:05:58.399Z,-0.75
2023-03-08T00:07:59.934Z,-0.79
2023-03-08T00:10:01.436Z,-0.83
2023-03-08T00:12:03.002Z,-0.86
2023-03-08T00:14:04.522Z,-0.87
2023-03-08T00:16:08.560Z,-0.87
2023-03-08T00:18:10.061Z,-0.91
2023-03-08T00:20:13.104Z,-0.91
2023-03-08T00:22:14.571Z,-0.91
2023-03-08T00:24:16.829Z,-0.91
2023-03-08T00:26:18.310Z,-0.92
2023-03-08T00:28:19.804Z,-0.92
2023-03-08T00:30:21.507Z,-0.93
2023-03-08T00:32:25.634Z,-0.95
2023-03-08T00:34:27.124Z,-0.96
2023-03-08T00:36:29.237Z,-0.95
2023-03-08T00:38:32.748Z,-0.95
2023-03-08T00:40:34.201Z,-0.97
2023-03-08T00:42:35.658Z,-0.95
2023-03-08T00:44:37.136Z,-0.96
2023-03-08T00:46:38.639Z,-0.97
2023-03-08T00:48:40.797Z,-1.00
2023-03-08T00:50:42.514Z,-1.01
2023-03-08T00:52:44.024Z,-1.01
2023-03-08T00:54:45.506Z,-1.03
2023-03-08T00:56:46.976Z,-1.05
2023-03-08T00:58:48.445Z,-1.06
2023-03-08T01:00:50.400Z,-1.08
2023-03-08T01:02:51.922Z,-1.09
2023-03-08T01:04:53.493Z,-1.10
2023-03-08T01:06:54.951Z,-1.10
2023-03-08T01:08:56.427Z,-1.11
2023-03-08T01:10:59.718Z,-1.12
2023-03-08T01:13:01.340Z,-1.14
2023-03-08T01:15:04.522Z,-1.15
2023-03-08T01:17:06.023Z,-1.16
2023-03-08T01:19:07.572Z,-1.17
2023-03-08T01:21:10.564Z,-1.17
2023-03-08T01:23:12.061Z,-1.17
2023-03-08T01:25:13.552Z,-1.21
2023-03-08T01:27:16.208Z,-1.22
2023-03-08T01:29:17.697Z,-1.24
2023-03-08T01:31:22.042Z,-1.25
2023-03-08T01:33:25.089Z,-1.24
2023-03-08T01:35:26.572Z,-1.25
2023-03-08T01:37:28.023Z,-1.28
2023-03-08T01:39:29.533Z,-1.28
2023-03-08T01:41:31.858Z,-1.28
2023-03-08T01:43:36.302Z,-1.31
2023-03-08T01:46:07.263Z,-1.33
2023-03-08T01:48:08.844Z,-1.35
2023-03-08T01:50:13.095Z,-1.32
2023-03-08T01:52:19.313Z,-1.33
2023-03-08T01:54:31.389Z,-1.36
2023-03-08T01:56:34.433Z,-1.37
2023-03-08T01:58:36.172Z,-1.37
2023-03-08T02:00:38.843Z,-1.37
2023-03-08T02:02:43.717Z,-1.38
2023-03-08T02:04:45.451Z,-1.38
2023-03-08T02:06:46.927Z,-1.40
2023-03-08T02:08:48.575Z,-1.41
2023-03-08T02:10:50.694Z,-1.42
2023-03-08T02:12:52.240Z,-1.42
2023-03-08T02:14:55.107Z,-1.41
2023-03-08T02:16:56.796Z,-1.39
2023-03-08T02:19:04.872Z,-1.38
2023-03-08T02:21:06.325Z,-1.38
2023-03-08T02:23:12.252Z,-1.37
2023-03-08T02:25:18.849Z,-1.35
2023-03-08T02:27:27.026Z,-1.35
2023-03-08T02:29:28.546Z,-1.35
2023-03-08T02:31:30.024Z,-1.35
2023-03-08T02:33:32.386Z,-1.35
2023-03-08T02:35:35.868Z,-1.36
2023-03-08T02:37:37.345Z,-1.38
2023-03-08T02:39:38.806Z,-1.37
2023-03-08T02:41:40.737Z,-1.39
2023-03-08T02:43:42.457Z,-1.39
2023-03-08T02:45:44.502Z,-1.39
2023-03-08T02:47:45.954Z,-1.35
2023-03-08T02:49:47.388Z,-1.31
2023-03-08T02:51:48.843Z,-1.27
2023-03-08T02:53:50.338Z,-1.21
2023-03-08T02:55:51.847Z,-1.17
2023-03-08T02:57:53.331Z,-1.15
2023-03-08T02:59:54.820Z,-1.12
2023-03-08T03:01:57.321Z,-1.08
2023-03-08T03:03:58.801Z,-1.07
2023-03-08T03:06:00.329Z,-1.04
2023-03-08T03:08:01.865Z,-1.00
2023-03-08T03:10:04.761Z,-0.98
2023-03-08T03:12:06.534Z,-0.95
2023-03-08T03:14:08.255Z,-0.92
2023-03-08T03:16:12.287Z,-0.87
2023-03-08T03:18:13.886Z,-0.84
2023-03-08T03:20:15.809Z,-0.83
2023-03-08T03:22:17.272Z,-0.83
2023-03-08T03:24:18.759Z,-0.83
2023-03-08T03:26:22.324Z,-0.81
2023-03-08T03:28:23.799Z,-0.79
2023-03-08T03:30:25.244Z,-0.78
2023-03-08T03:32:27.076Z,-0.76
2023-03-08T03:34:29.796Z,-0.75
2023-03-08T03:36:31.345Z,-0.73
2023-03-08T03:38:32.816Z,-0.71
2023-03-08T03:40:34.270Z,-0.70
2023-03-08T03:42:35.714Z,-0.72
2023-03-08T03:44:37.280Z,-0.72
2023-03-08T03:46:38.840Z,-0.71
2023-03-08T03:48:40.846Z,-0.73
2023-03-08T03:50:42.320Z,-0.75
2023-03-08T03:52:43.804Z,-0.78
2023-03-08T03:54:45.232Z,-0.81
2023-03-08T03:56:46.757Z,-0.81
2023-03-08T03:58:48.752Z,-0.84
2023-03-08T04:00:50.196Z,-0.87
2023-03-08T04:02:52.116Z,-0.87
2023-03-08T04:04:53.602Z,-0.89
2023-03-08T04:06:55.061Z,-0.88
2023-03-08T04:09:04.910Z,-0.90
2023-03-08T04:11:06.410Z,-0.91
2023-03-08T04:13:07.916Z,-0.91
2023-03-08T04:15:09.600Z,-0.90
2023-03-08T04:17:11.055Z,-0.91
2023-03-08T04:19:13.772Z,-0.88
2023-03-08T04:21:15.451Z,-0.91
2023-03-08T04:23:16.941Z,-0.93
2023-03-08T04:25:18.955Z,-0.94
2023-03-08T04:27:20.455Z,-0.96
2023-03-08T04:29:21.910Z,-0.96
2023-03-08T04:31:29.144Z,-0.98
2023-03-08T04:33:30.668Z,-1.00
2023-03-08T04:35:32.125Z,-1.01
2023-03-08T04:37:33.824Z,-1.04
2023-03-08T04:39:35.508Z,-1.06
2023-03-08T04:41:37.029Z,-1.06
2023-03-08T04:43:45.359Z,-1.04
2023-03-08T04:45:47.228Z,-1.04
2023-03-08T04:47:48.674Z,-1.03
2023-03-08T04:49:50.122Z,-1.05
2023-03-08T04:51:51.582Z,-1.05
2023-03-08T04:53:53.046Z,-1.05
2023-03-08T04:55:54.934Z,-1.06
2023-03-08T04:57:56.428Z,-1.08
2023-03-08T04:59:57.930Z,-1.10
2023-03-08T05:01:59.422Z,-1.11
2023-03-08T05:04:00.947Z,-1.11
2023-03-08T05:06:02.460Z,-1.13
2023-03-08T05:08:05.202Z,-1.13
2023-03-08T05:10:06.959Z,-1.15
2023-03-08T05:12:08.791Z,-1.17
2023-03-08T05:14:10.329Z,-1.17
2023-03-08T05:16:12.137Z,-1.21
2023-03-08T05:18:13.671Z,-1.22
2023-03-08T05:20:15.247Z,-1.21
2023-03-08T05:22:16.733Z,-1.22
2023-03-08T05:24:18.326Z,-1.24
2023-03-08T05:26:19.878Z,-1.24
2023-03-08T05:28:23.544Z,-1.23
2023-03-08T05:30:25.124Z,-1.23
2023-03-08T05:32:26.854Z,-1.24
2023-03-08T05:34:29.133Z,-1.22
2023-03-08T05:36:30.618Z,-1.21
2023-03-08T05:38:32.318Z,-1.22
2023-03-08T05:40:33.809Z,-1.24
2023-03-08T05:42:35.398Z,-1.25
2023-03-08T05:44:37.678Z,-1.23
2023-03-08T05:46:39.267Z,-1.25
2023-03-08T05:48:40.845Z,-1.27
2023-03-08T05:50:42.302Z,-1.23
2023-03-08T05:52:43.776Z,-1.23
2023-03-08T05:54:45.246Z,-1.24
2023-03-08T05:56:46.780Z,-1.24
2023-03-08T05:58:48.569Z,-1.26
2023-03-08T06:00:50.080Z,-1.28
2023-03-08T06:02:51.630Z,-1.28
2023-03-08T06:04:53.138Z,-1.28
2023-03-08T06:06:54.659Z,-1.27
2023-03-08T06:08:56.420Z,-1.26
2023-03-08T06:10:57.924Z,-1.25
2023-03-08T06:12:59.376Z,-1.23
2023-03-08T06:15:00.906Z,-1.24
2023-03-08T06:17:02.445Z,-1.23
2023-03-08T06:19:04.214Z,-1.23
2023-03-08T06:21:08.512Z,-1.21
2023-03-08T06:23:09.969Z,-1.21
2023-03-08T06:25:11.462Z,-1.20
2023-03-08T06:27:12.909Z,-1.19
2023-03-08T06:29:14.386Z,-1.18
2023-03-08T06:31:19.483Z,-1.17
2023-03-08T06:33:23.622Z,-1.16
2023-03-08T06:35:25.922Z,-1.15
2023-03-08T06:37:27.410Z,-1.13
2023-03-08T06:39:30.972Z,-1.10
2023-03-08T06:41:32.853Z,-1.09
2023-03-08T06:43:35.687Z,-1.06
2023-03-08T06:45:40.945Z,-1.03
2023-03-08T06:47:42.459Z,-1.01
2023-03-08T06:49:44.686Z,-0.97
2023-03-08T06:51:47.533Z,-0.93
2023-03-08T06:53:49.000Z,-0.91
2023-03-08T06:55:50.486Z,-0.89
2023-03-08T06:57:52.052Z,-0.87
2023-03-08T06:59:53.540Z,-0.83
2023-03-08T07:01:54.992Z,-0.81
2023-03-08T07:03:57.104Z,-0.79
2023-03-08T07:06:00.477Z,-0.76
2023-03-08T07:08:02.022Z,-0.73
2023-03-08T07:10:04.384Z,-0.71
2023-03-08T07:12:08.127Z,-0.69
2023-03-08T07:14:09.793Z,-0.66
2023-03-08T07:16:13.510Z,-0.66
2023-03-08T07:18:16.079Z,-0.65
2023-03-08T07:20:20.217Z,-0.61
2023-03-08T07:22:21.779Z,-0.61
2023-03-08T07:24:23.341Z,-0.58
2023-03-08T07:26:24.801Z,-0.54
2023-03-08T07:28:26.331Z,-0.49
2023-03-08T07:30:27.857Z,-0.46
2023-03-08T07:32:29.466Z,-0.42
2023-03-08T07:34:31.082Z,-0.36
2023-03-08T07:36:33.257Z,-0.32
2023-03-08T07:38:34.753Z,-0.26
2023-03-08T07:40:36.227Z,-0.23
2023-03-08T07:42:37.728Z,-0.21
2023-03-08T07:44:39.211Z,-0.21
2023-03-08T07:46:40.687Z,-0.18
2023-03-08T07:48:42.253Z,-0.14
2023-03-08T07:50:43.825Z,-0.11
2023-03-08T07:52:45.338Z,-0.07
2023-03-08T07:54:46.858Z,-0.04
2023-03-08T07:56:48.294Z,-0.02
2023-03-08T07:58:49.878Z,-0.03
2023-03-08T08:00:51.450Z,0.00
2023-03-08T08:02:54.120Z,0.02
2023-03-08T08:04:55.717Z,0.05
2023-03-08T08:06:59.250Z,0.04
2023-03-08T08:09:00.716Z,0.07
2023-03-08T08:11:09.473Z,0.08
2023-03-08T08:13:11.364Z,0.09
2023-03-08T08:15:13.001Z,0.13
2023-03-08T08:17:14.457Z,0.18
2023-03-08T08:19:17.135Z,0.24
2023-03-08T08:21:19.082Z,0.31
2023-03-08T08:23:20.522Z,0.38
2023-03-08T08:25:22.240Z,0.44
2023-03-08T08:27:23.690Z,0.49
2023-03-08T08:29:25.264Z,0.53
2023-03-08T08:31:31.232Z,0.61
2023-03-08T08:33:33.394Z,0.65
2023-03-08T08:35:43.098Z,0.61
2023-03-08T08:37:45.006Z,0.62
2023-03-08T08:39:46.446Z,0.66
2023-03-08T08:41:49.683Z,0.72
2023-03-08T08:43:51.211Z,0.77
2023-03-08T08:45:55.784Z,0.87
2023-03-08T08:47:57.269Z,0.95
2023-03-08T08:49:58.781Z,1.03
2023-03-08T08:52:00.240Z,1.06
2023-03-08T08:54:01.810Z,1.14
2023-03-08T08:56:28.365Z,1.14
2023-03-08T08:58:30.158Z,1.16
2023-03-08T09:00:33.533Z,1.18
2023-03-08T09:02:35.115Z,1.20
2023-03-08T09:04:36.758Z,1.27
2023-03-08T09:06:38.468Z,1.36
2023-03-08T09:08:40.288Z,1.44
2023-03-08T09:10:42.278Z,1.45
2023-03-08T09:12:43.810Z,1.45
2023-03-08T09:14:45.326Z,1.52
2023-03-08T09:16:46.987Z,1.61
2023-03-08T09:18:48.885Z,1.69
2023-03-08T09:20:50.472Z,1.70
2023-03-08T09:22:52.036Z,1.66
2023-03-08T09:24:53.583Z,1.65
2023-03-08T09:26:55.116Z,1.65
2023-03-08T09:28:58.733Z,1.65
2023-03-08T09:31:00.562Z,1.68
2023-03-08T09:33:02.533Z,1.72
2023-03-08T09:35:05.255Z,1.75
2023-03-08T09:37:08.242Z,1.85
2023-03-08T09:39:13.108Z,2.04
2023-03-08T09:41:25.743Z,2.23
2023-03-08T09:43:44.585Z,2.41
2023-03-08T09:45:46.276Z,2.58
2023-03-08T09:47:54.114Z,2.74
2023-03-08T09:50:04.408Z,2.86
2023-03-08T09:52:22.432Z,2.97
2023-03-08T09:54:25.142Z,2.93
2023-03-08T09:56:38.399Z,3.03
2023-03-08T09:59:25.278Z,3.18
2023-03-08T10:01:35.667Z,3.36
2023-03-08T10:03:52.422Z,3.46
2023-03-08T10:05:59.109Z,3.58
2023-03-08T10:08:13.633Z,3.71
2023-03-08T10:10:18.142Z,3.79
2023-03-08T10:12:52.365Z,3.88
2023-03-08T10:15:01.494Z,3.97
2023-03-08T10:17:12.119Z,3.95
2023-03-08T10:19:27.502Z,3.82
2023-03-08T10:21:32.814Z,3.73
2023-03-08T10:23:36.532Z,3.78
2023-03-08T10:25:39.040Z,3.83
2023-03-08T10:27:40.596Z,3.86
2023-03-08T10:29:49.054Z,3.75
2023-03-08T10:31:50.529Z,3.72
2023-03-08T10:34:11.233Z,3.73
2023-03-08T10:36:24.126Z,3.42
2023-03-08T10:38:30.593Z,3.25
2023-03-08T10:40:32.181Z,3.27
2023-03-08T10:42:35.432Z,3.35
2023-03-08T10:44:55.850Z,3.42
2023-03-08T10:46:57.540Z,3.41
2023-03-08T10:49:14.668Z,3.40
2023-03-08T10:51:23.047Z,3.55
2023-03-08T10:53:24.568Z,3.69
2023-03-08T10:55:30.151Z,3.84
2023-03-08T10:57:32.831Z,3.96
2023-03-08T10:59:36.464Z,4.06
2023-03-08T11:01:52.448Z,4.14
2023-03-08T11:04:00.200Z,4.23
2023-03-08T11:06:23.322Z,4.33
2023-03-08T11:08:36.737Z,4.36
2023-03-08T11:10:38.254Z,4.35
2023-03-08T11:12:40.320Z,4.41
2023-03-08T11:14:41.902Z,4.48
2023-03-08T11:17:04.612Z,4.53
2023-03-08T11:19:32.842Z,4.58
2023-03-08T11:22:02.314Z,4.59
2023-03-08T11:24:09.484Z,4.59
2023-03-08T11:26:22.570Z,4.63
2023-03-08T11:28:35.608Z,4.64
2023-03-08T11:31:15.083Z,4.55
2023-03-08T11:33:46.064Z,4.59
2023-03-08T11:36:13.249Z,4.49
2023-03-08T11:38:17.511Z,4.53
2023-03-08T11:40:25.155Z,4.69
2023-03-08T11:42:59.130Z,4.93
2023-03-08T11:45:19.329Z,5.11
2023-03-08T11:47:51.508Z,5.17
2023-03-08T11:50:10.940Z,5.18
2023-03-08T11:52:28.653Z,5.16
2023-03-08T11:54:51.839Z,5.13
2023-03-08T11:57:04.118Z,5.12
2023-03-08T11:59:33.884Z,5.18
2023-03-08T12:02:02.691Z,5.15
2023-03-08T12:04:11.559Z,5.23
2023-03-08T12:06:28.266Z,5.31
2023-03-08T12:08:44.031Z,5.34
2023-03-08T12:10:56.491Z,5.39
2023-03-08T12:13:04.945Z,5.42
2023-03-08T12:15:41.219Z,5.45
2023-03-08T12:17:50.418Z,5.47
2023-03-08T12:19:52.199Z,5.52
2023-03-08T12:22:08.942Z,5.52
2023-03-08T12:24:44.218Z,5.59
2023-03-08T12:26:51.377Z,5.64
2023-03-08T12:29:02.183Z,5.65
2023-03-08T12:31:11.015Z,5.68
2023-03-08T12:33:20.269Z,5.68
2023-03-08T12:35:27.505Z,5.76
2023-03-08T12:37:30.367Z,5.79
2023-03-08T12:39:36.719Z,5.84
2023-03-08T12:41:38.579Z,5.66
2023-03-08T12:43:40.573Z,5.61
2023-03-08T12:45:45.160Z,5.65
2023-03-08T12:48:06.867Z,5.81
2023-03-08T12:50:18.361Z,5.91
2023-03-08T12:52:19.911Z,5.99
2023-03-08T12:54:23.702Z,6.05
2023-03-08T12:56:31.235Z,6.02
2023-03-08T12:58:34.875Z,5.99
2023-03-08T13:00:38.378Z,6.02
2023-03-08T13:02:39.861Z,6.05
2023-03-08T13:04:42.715Z,6.13
2023-03-08T13:07:00.533Z,6.14
2023-03-08T13:09:16.292Z,6.09
2023-03-08T13:11:18.119Z,6.14
2023-03-08T13:13:39.560Z,6.16
2023-03-08T13:15:41.217Z,6.16
2023-03-08T13:17:50.559Z,6.21
2023-03-08T13:19:52.334Z,6.22
2023-03-08T13:22:03.578Z,6.24
2023-03-08T13:24:17.891Z,6.27
2023-03-08T13:26:57.542Z,6.37
2023-03-08T13:28:59.254Z,6.39
2023-03-08T13:31:25.034Z,6.37
2023-03-08T13:33:33.370Z,6.37
2023-03-08T13:35:35.055Z,6.28
2023-03-08T13:37:36.641Z,6.28
2023-03-08T13:39:38.145Z,6.26
2023-03-08T13:41:41.749Z,6.26
2023-03-08T13:43:43.209Z,6.23
2023-03-08T13:45:48.969Z,6.22
2023-03-08T13:47:51.599Z,6.16
2023-03-08T13:49:55.672Z,6.12
2023-03-08T13:52:02.305Z,6.13
2023-03-08T13:54:04.043Z,6.14
2023-03-08T13:56:06.577Z,6.17
2023-03-08T13:58:24.573Z,6.22
2023-03-08T14:00:26.267Z,6.26
2023-03-08T14:02:30.653Z,6.26
2023-03-08T14:04:34.838Z,6.23
2023-03-08T14:06:38.106Z,6.18
2023-03-08T14:08:39.633Z,6.14
2023-03-08T14:10:45.384Z,6.03
2023-03-08T14:12:46.905Z,6.01
2023-03-08T14:14:55.382Z,6.01
2023-03-08T14:16:57.690Z,6.02
2023-03-08T14:19:08.332Z,6.05
2023-03-08T14:21:39.096Z,6.13
2023-03-08T14:23:43.212Z,6.12
2023-03-08T14:25:44.716Z,6.07
2023-03-08T14:27:46.236Z,6.03
2023-03-08T14:29:48.332Z,6.01
2023-03-08T14:31:52.722Z,5.99
2023-03-08T14:34:05.206Z,5.98
2023-03-08T14:36:09.722Z,5.83
2023-03-08T14:38:23.439Z,5.80
2023-03-08T14:40:26.599Z,5.83
2023-03-08T14:42:55.730Z,5.80
2023-03-08T14:45:05.603Z,5.78
2023-03-08T14:47:21.518Z,5.79
2023-03-08T14:49:23.860Z,5.83
2023-03-08T14:51:41.059Z,5.83
2023-03-08T14:53:43.034Z,5.82
2023-03-08T14:55:44.730Z,5.77
2023-03-08T14:57:46.292Z,5.74
2023-03-08T14:59:48.882Z,5.65
2023-03-08T15:01:50.468Z,5.55
2023-03-08T15:03:52.051Z,5.56
2023-03-08T15:05:55.427Z,5.55
2023-03-08T15:08:00.441Z,5.43
2023-03-08T15:10:04.460Z,5.41
2023-03-08T15:12:09.285Z,5.41
2023-03-08T15:14:14.278Z,5.45
2023-03-08T15:16:15.847Z,5.42
2023-03-08T15:18:17.422Z,5.41
2023-03-08T15:20:19.546Z,5.36
2023-03-08T15:22:21.372Z,5.30
2023-03-08T15:24:23.188Z,5.30
2023-03-08T15:26:28.745Z,5.23
2023-03-08T15:28:30.208Z,5.15
2023-03-08T15:30:33.003Z,5.13
2023-03-08T15:32:34.844Z,5.12
2023-03-08T15:34:36.398Z,5.09
2023-03-08T15:36:37.960Z,5.05
2023-03-08T15:38:39.419Z,5.02
2023-03-08T15:40:41.857Z,4.98
2023-03-08T15:42:43.591Z,4.97
2023-03-08T15:44:45.043Z,4.94
2023-03-08T15:46:46.651Z,4.92
2023-03-08T15:48:50.995Z,4.91
2023-03-08T15:50:52.542Z,4.91
2023-03-08T15:52:54.593Z,4.88
2023-03-08T15:54:56.110Z,4.88
2023-03-08T15:56:58.450Z,4.90
2023-03-08T15:59:00.123Z,4.89
2023-03-08T16:01:01.625Z,4.91
2023-03-08T16:03:03.161Z,4.90
2023-03-08T16:05:09.486Z,4.87
2023-03-08T16:07:16.433Z,4.84
2023-03-08T16:09:17.902Z,4.82
2023-03-08T16:11:23.034Z,4.81
2023-03-08T16:13:24.583Z,4.76
2023-03-08T16:15:26.255Z,4.72
2023-03-08T16:17:30.541Z,4.67
2023-03-08T16:19:33.815Z,4.66
2023-03-08T16:21:35.279Z,4.66
2023-03-08T16:23:38.960Z,4.66
2023-03-08T16:25:43.193Z,4.57
2023-03-08T16:27:44.870Z,4.54
2023-03-08T16:29:50.963Z,4.54
2023-03-08T16:31:52.963Z,4.52
2023-03-08T16:33:54.422Z,4.51
2023-03-08T16:35:56.020Z,4.46
2023-03-08T16:37:57.596Z,4.47
2023-03-08T16:40:02.047Z,4.42
2023-03-08T16:42:03.687Z,4.32
2023-03-08T16:44:07.026Z,4.29
2023-03-08T16:46:14.163Z,4.28
2023-03-08T16:48:15.621Z,4.25
2023-03-08T16:50:17.325Z,4.23
2023-03-08T16:52:19.293Z,4.20
2023-03-08T16:54:20.839Z,4.19
2023-03-08T16:56:25.228Z,4.17
2023-03-08T16:58:26.694Z,4.14
2023-03-08T17:00:28.183Z,4.12
2023-03-08T17:02:29.729Z,4.09
2023-03-08T17:04:31.234Z,4.06
2023-03-08T17:06:33.235Z,4.04
2023-03-08T17:08:34.870Z,4.03
2023-03-08T17:10:40.674Z,4.01
2023-03-08T17:12:42.189Z,3.97
2023-03-08T17:14:44.618Z,3.94
2023-03-08T17:16:46.140Z,3.91
2023-03-08T17:18:49.239Z,3.90
2023-03-08T17:20:52.213Z,3.88
2023-03-08T17:22:53.665Z,3.84
2023-03-08T17:24:55.205Z,3.82
2023-03-08T17:26:56.734Z,3.80
2023-03-08T17:28:58.197Z,3.75
2023-03-08T17:30:59.717Z,3.73
2023-03-08T17:33:01.188Z,3.70
2023-03-08T17:35:02.681Z,3.67
2023-03-08T17:37:04.496Z,3.65
2023-03-08T17:39:06.131Z,3.64
2023-03-08T17:41:10.967Z,3.63
2023-03-08T17:43:12.425Z,3.61
2023-03-08T17:45:15.952Z,3.62
2023-03-08T17:47:17.420Z,3.60
2023-03-08T17:49:23.296Z,3.57
2023-03-08T17:51:27.900Z,3.57
2023-03-08T17:53:29.735Z,3.54
2023-03-08T17:55:31.233Z,3.50
2023-03-08T17:57:32.694Z,3.48
2023-03-08T17:59:34.160Z,3.41
2023-03-08T18:01:35.650Z,3.39
2023-03-08T18:03:37.745Z,3.34
2023-03-08T18:05:48.690Z,3.25
2023-03-08T18:07:50.202Z,3.20
2023-03-08T18:09:51.726Z,3.15
2023-03-08T18:11:53.180Z,3.14
2023-03-08T18:13:55.145Z,3.06
2023-03-08T18:15:56.826Z,3.00
2023-03-08T18:17:58.435Z,2.97
2023-03-08T18:20:01.047Z,2.85
2023-03-08T18:22:04.463Z,2.78
2023-03-08T18:24:06.254Z,2.75
2023-03-08T18:26:07.703Z,2.72
2023-03-08T18:28:09.404Z,2.73
2023-03-08T18:30:11.923Z,2.72
2023-03-08T18:32:13.417Z,2.68
2023-03-08T18:34:15.417Z,2.63
2023-03-08T18:36:18.049Z,2.61
2023-03-08T18:38:19.518Z,2.55
2023-03-08T18:40:21.071Z,2.53
2023-03-08T18:42:22.592Z,2.53
2023-03-08T18:44:24.712Z,2.48
2023-03-08T18:46:28.889Z,2.45
2023-03-08T18:48:30.537Z,2.44
2023-03-08T18:50:32.525Z,2.44
2023-03-08T18:52:34.184Z,2.44
2023-03-08T18:54:35.902Z,2.43
2023-03-08T18:56:37.466Z,2.42
2023-03-08T18:58:38.964Z,2.41
2023-03-08T19:00:40.489Z,2.38
2023-03-08T19:02:42.026Z,2.37
2023-03-08T19:04:43.535Z,2.34
2023-03-08T19:06:45.141Z,2.32
2023-03-08T19:08:46.641Z,2.32
2023-03-08T19:10:48.200Z,2.31
2023-03-08T19:12:49.723Z,2.28
2023-03-08T19:14:52.924Z,2.27
2023-03-08T19:16:54.738Z,2.25
2023-03-08T19:18:59.040Z,2.24
2023-03-08T19:21:00.563Z,2.20
2023-03-08T19:23:02.072Z,2.18
2023-03-08T19:25:05.871Z,2.14
2023-03-08T19:27:07.457Z,2.11
2023-03-08T19:29:23.775Z,2.09
2023-03-08T19:31:25.305Z,2.04
2023-03-08T19:33:31.596Z,2.05
2023-03-08T19:35:34.332Z,2.03
2023-03-08T19:37:35.954Z,2.02
2023-03-08T19:39:38.377Z,1.99
2023-03-08T19:41:40.391Z,1.98
2023-03-08T19:43:42.719Z,1.96
2023-03-08T19:45:50.496Z,1.96
2023-03-08T19:47:52.616Z,1.95
2023-03-08T19:49:54.097Z,1.95
2023-03-08T19:51:57.336Z,1.94
2023-03-08T19:53:58.910Z,1.93
2023-03-08T19:56:00.393Z,1.92
2023-03-08T19:58:01.842Z,1.89
2023-03-08T20:00:06.174Z,1.88
2023-03-08T20:02:08.913Z,1.87
2023-03-08T20:04:11.497Z,1.85
2023-03-08T20:06:20.466Z,1.84
2023-03-08T20:08:21.989Z,1.84
2023-03-08T20:10:23.534Z,1.83
2023-03-08T20:12:25.006Z,1.84
2023-03-08T20:14:27.197Z,1.84
2023-03-08T20:16:29.686Z,1.82
2023-03-08T20:18:31.377Z,1.82
2023-03-08T20:20:33.153Z,1.81
2023-03-08T20:22:34.686Z,1.81
2023-03-08T20:24:36.222Z,1.81
2023-03-08T20:26:38.006Z,1.79
2023-03-08T20:28:39.772Z,1.78
2023-03-08T20:30:41.420Z,1.77
2023-03-08T20:32:43.195Z,1.76
2023-03-08T20:34:44.697Z,1.75
2023-03-08T20:36:47.409Z,1.74
2023-03-08T20:38:49.232Z,1.74
2023-03-08T20:41:01.939Z,1.74
2023-03-08T20:43:03.420Z,1.70
2023-03-08T20:45:05.717Z,1.68
2023-03-08T20:47:07.432Z,1.68
2023-03-08T20:49:11.134Z,1.65
2023-03-08T20:51:17.606Z,1.66
2023-03-08T20:53:19.075Z,1.63
2023-03-08T20:55:20.905Z,1.62
2023-03-08T20:57:22.932Z,1.61
2023-03-08T20:59:26.914Z,1.58
2023-03-08T21:01:31.416Z,1.57
2023-03-08T21:03:32.938Z,1.56
2023-03-08T21:05:35.934Z,1.57
2023-03-08T21:07:37.420Z,1.57
2023-03-08T21:09:38.892Z,1.56
2023-03-08T21:11:40.743Z,1.54
2023-03-08T21:13:42.956Z,1.54
2023-03-08T21:15:44.572Z,1.50
2023-03-08T21:17:46.068Z,1.48
2023-03-08T21:19:50.944Z,1.48
2023-03-08T21:21:52.583Z,1.48
2023-03-08T21:23:59.489Z,1.48
2023-03-08T21:26:01.297Z,1.47
2023-03-08T21:28:02.875Z,1.45
2023-03-08T21:30:06.122Z,1.44
2023-03-08T21:32:07.656Z,1.44
2023-03-08T21:34:09.327Z,1.46
2023-03-08T21:36:11.156Z,1.45
2023-03-08T21:38:12.654Z,1.43
2023-03-08T21:40:14.538Z,1.42
2023-03-08T21:42:16.018Z,1.43
2023-03-08T21:44:19.789Z,1.42
2023-03-08T21:46:21.423Z,1.42
2023-03-08T21:48:22.913Z,1.41
2023-03-08T21:50:24.395Z,1.38
2023-03-08T21:52:25.919Z,1.39
2023-03-08T21:54:29.852Z,1.38
2023-03-08T21:56:31.416Z,1.40
2023-03-08T21:58:32.888Z,1.39
2023-03-08T22:00:34.834Z,1.38
2023-03-08T22:02:36.485Z,1.39
2023-03-08T22:04:39.026Z,1.38
2023-03-08T22:06:40.814Z,1.39
2023-03-08T22:08:42.311Z,1.38
2023-03-08T22:10:43.764Z,1.39
2023-03-08T22:12:47.284Z,1.40
2023-03-08T22:14:48.824Z,1.41
2023-03-08T22:16:50.322Z,1.41
2023-03-08T22:18:56.773Z,1.43
2023-03-08T22:20:59.072Z,1.40
2023-03-08T22:23:01.444Z,1.40
2023-03-08T22:25:03.621Z,1.41
2023-03-08T22:27:05.378Z,1.41
2023-03-08T22:29:06.872Z,1.41
2023-03-08T22:31:13.853Z,1.41
2023-03-08T22:33:15.829Z,1.43
2023-03-08T22:35:17.923Z,1.44
2023-03-08T22:37:19.497Z,1.44
2023-03-08T22:39:20.972Z,1.43
2023-03-08T22:41:24.902Z,1.44
2023-03-08T22:43:27.088Z,1.43
2023-03-08T22:45:29.657Z,1.43
2023-03-08T22:47:31.487Z,1.42
2023-03-08T22:49:34.328Z,1.44
2023-03-08T22:51:36.441Z,1.43
2023-03-08T22:53:38.592Z,1.42
2023-03-08T22:55:46.606Z,1.41
2023-03-08T22:57:48.277Z,1.41
2023-03-08T22:59:49.748Z,1.42
2023-03-08T23:01:52.463Z,1.41
2023-03-08T23:03:57.081Z,1.41
2023-03-08T23:05:58.608Z,1.41
2023-03-08T23:08:00.123Z,1.42
2023-03-08T23:10:01.557Z,1.40
2023-03-08T23:12:04.894Z,1.40
2023-03-08T23:14:08.002Z,1.40
2023-03-08T23:16:13.725Z,1.40
2023-03-08T23:18:15.245Z,1.40
2023-03-08T23:20:19.888Z,1.40
2023-03-08T23:22:21.442Z,1.39
2023-03-08T23:24:22.930Z,1.39
2023-03-08T23:26:27.159Z,1.39
2023-03-08T23:28:28.604Z,1.38
2023-03-08T23:30:30.093Z,1.38
2023-03-08T23:32:31.838Z,1.37
2023-03-08T23:34:33.623Z,1.36
2023-03-08T23:36:35.152Z,1.36
2023-03-08T23:38:36.604Z,1.36
2023-03-08T23:40:39.848Z,1.35
2023-03-08T23:42:41.698Z,1.33
2023-03-08T23:44:43.154Z,1.34
2023-03-08T23:46:46.299Z,1.34
2023-03-08T23:48:48.643Z,1.34
2023-03-08T23:50:50.112Z,1.34
2023-03-08T23:52:51.590Z,1.33
2023-03-08T23:54:53.576Z,1.32
2023-03-08T23:56:55.031Z,1.30
2023-03-08T23:58:58.392Z,1.30
